createdAt,value
2022-12-31T00:00:13.122Z,102613.81
2022-12-31T00:05:15.473Z,102617.31
2022-12-31T00:10:17.850Z,102613.81
2022-12-31T00:15:19.978Z,102613.81
2022-12-31T00:20:22.196Z,102611.91
2022-12-31T00:25:24.498Z,102614.56
2022-12-31T00:30:26.739Z,102612.72
2022-12-31T00:35:29.035Z,102611.06
2022-12-31T00:40:31.174Z,102608.50
2022-12-31T00:45:33.329Z,102614.66
2022-12-31T00:50:35.476Z,102608.50
2022-12-31T00:55:37.703Z,102606.78
2022-12-31T01:00:40.238Z,102611.22
2022-12-31T01:05:42.408Z,102609.44
2022-12-31T01:11:10.435Z,102619.13
2022-12-31T01:16:13.405Z,102603.41
2022-12-31T01:21:16.235Z,102607.53
2022-12-31T01:26:19.556Z,102610.19
2022-12-31T01:31:22.960Z,102615.44
2022-12-31T01:36:27.990Z,102614.75
2022-12-31T01:41:33.950Z,102613.88
2022-12-31T01:46:41.918Z,102606.84
2022-12-31T01:51:50.030Z,102615.72
2022-12-31T01:56:54.338Z,102616.59
2022-12-31T02:01:56.923Z,102605.13
2022-12-31T02:07:05.662Z,102611.28
2022-12-31T02:12:09.769Z,102613.88
2022-12-31T02:17:30.265Z,102612.16
2022-12-31T02:22:47.402Z,102609.44
2022-12-31T02:28:01.941Z,102613.94
2022-12-31T02:33:09.719Z,102609.56
2022-12-31T02:38:18.555Z,102609.66
2022-12-31T02:43:20.916Z,102617.53
2022-12-31T02:48:31.075Z,102614.97
2022-12-31T02:53:33.283Z,102612.22
2022-12-31T02:59:18.078Z,102614.88
2022-12-31T03:04:34.326Z,102614.81
2022-12-31T03:09:37.314Z,102616.59
2022-12-31T03:14:39.537Z,102615.78
2022-12-31T03:20:00.602Z,102617.53
2022-12-31T03:25:27.333Z,102607.84
2022-12-31T03:30:30.966Z,102614.97
2022-12-31T03:35:35.656Z,102614.09
2022-12-31T03:40:41.236Z,102619.25
2022-12-31T03:45:43.432Z,102628.06
2022-12-31T03:50:45.580Z,102632.56
2022-12-31T03:55:52.659Z,102624.72
2022-12-31T04:00:54.954Z,102627.28
2022-12-31T04:05:57.256Z,102621.09
2022-12-31T04:10:59.435Z,102629.06
2022-12-31T04:16:01.634Z,102625.47
2022-12-31T04:21:05.533Z,102629.84
2022-12-31T04:26:07.520Z,102628.28
2022-12-31T04:31:11.543Z,102623.84
2022-12-31T04:36:13.738Z,102629.16
2022-12-31T04:41:19.119Z,102615.91
2022-12-31T04:46:24.747Z,102622.13
2022-12-31T04:51:28.183Z,102626.50
2022-12-31T04:56:31.173Z,102622.13
2022-12-31T05:01:33.620Z,102623.84
2022-12-31T05:06:35.895Z,102629.16
2022-12-31T05:11:38.383Z,102626.50
2022-12-31T05:16:40.636Z,102631.72
2022-12-31T05:21:42.792Z,102635.38
2022-12-31T05:26:44.924Z,102647.72
2022-12-31T05:31:47.208Z,102650.38
2022-12-31T05:36:49.356Z,102647.72
2022-12-31T05:41:51.496Z,102652.09
2022-12-31T05:46:53.699Z,102646.13
2022-12-31T05:51:55.863Z,102645.25
2022-12-31T05:56:58.099Z,102669.81
2022-12-31T06:02:00.628Z,102678.69
2022-12-31T06:07:02.835Z,102676.03
2022-12-31T06:12:05.824Z,102686.59
2022-12-31T06:17:08.764Z,102693.59
2022-12-31T06:22:11.017Z,102696.34
2022-12-31T06:27:13.222Z,102705.22
2022-12-31T06:32:16.235Z,102700.84
2022-12-31T06:37:18.377Z,102706.16
2022-12-31T06:42:20.558Z,102705.28
2022-12-31T06:47:22.746Z,102705.28
2022-12-31T06:52:24.874Z,102705.34
2022-12-31T06:57:27.557Z,102718.50
2022-12-31T07:02:44.344Z,102716.75
2022-12-31T07:07:55.484Z,102710.66
2022-12-31T07:13:12.482Z,102723.00
2022-12-31T07:18:37.421Z,102715.09
2022-12-31T07:23:40.801Z,102722.06
2022-12-31T07:28:46.027Z,102714.09
2022-12-31T07:33:48.131Z,102711.47
2022-12-31T07:38:52.867Z,102712.38
2022-12-31T07:44:35.730Z,102725.72
2022-12-31T07:49:43.527Z,102713.31
2022-12-31T07:54:45.800Z,102720.41
2022-12-31T07:59:53.151Z,102704.47
2022-12-31T08:05:00.751Z,102712.38
2022-12-31T08:10:14.028Z,102701.78
2022-12-31T08:15:24.116Z,102708.94
2022-12-31T08:20:31.832Z,102705.44
2022-12-31T08:26:41.513Z,102706.28
2022-12-31T08:31:52.408Z,102709.72
2022-12-31T08:37:10.960Z,102712.38
2022-12-31T08:42:37.330Z,102716.06
2022-12-31T08:47:48.417Z,102719.53
2022-12-31T08:52:50.851Z,102721.53
2022-12-31T08:58:34.176Z,102734.53
2022-12-31T09:04:08.532Z,102737.13
2022-12-31T09:09:45.791Z,102738.97
2022-12-31T09:15:00.862Z,102748.81
2022-12-31T09:20:04.213Z,102748.66
2022-12-31T09:25:06.829Z,102753.09
2022-12-31T09:30:13.193Z,102749.50
2022-12-31T09:35:38.862Z,102748.72
2022-12-31T09:40:48.170Z,102755.84
2022-12-31T09:46:05.196Z,102748.72
2022-12-31T09:51:31.402Z,102764.56
2022-12-31T09:56:41.298Z,102773.34
2022-12-31T10:02:14.591Z,102767.22
2022-12-31T10:07:52.368Z,102773.53
2022-12-31T10:13:02.010Z,102774.31
2022-12-31T10:18:33.370Z,102773.44
2022-12-31T10:23:47.441Z,102771.59
2022-12-31T10:29:00.158Z,102777.84
2022-12-31T10:34:31.882Z,102761.16
2022-12-31T10:39:45.689Z,102757.53
2022-12-31T10:45:15.013Z,102761.97
2022-12-31T10:50:40.979Z,102764.44
2022-12-31T10:56:12.444Z,102757.47
2022-12-31T11:01:40.089Z,102746.94
2022-12-31T11:07:23.723Z,102746.94
2022-12-31T11:12:57.838Z,102742.47
2022-12-31T11:18:05.777Z,102736.41
2022-12-31T11:23:13.666Z,102729.16
2022-12-31T11:28:29.556Z,102728.22
2022-12-31T11:33:50.009Z,102713.25
2022-12-31T11:39:12.041Z,102706.16
2022-12-31T11:44:26.046Z,102707.06
2022-12-31T11:49:37.879Z,102693.75
2022-12-31T11:54:57.470Z,102691.97
2022-12-31T12:00:03.178Z,102695.47
2022-12-31T12:05:17.446Z,102704.19
2022-12-31T12:10:27.869Z,102711.38
2022-12-31T12:15:35.849Z,102710.47
2022-12-31T12:20:40.339Z,102707.88
2022-12-31T12:25:44.719Z,102702.56
2022-12-31T12:31:04.479Z,102692.81
2022-12-31T12:36:12.369Z,102683.06
2022-12-31T12:41:26.668Z,102671.50
2022-12-31T12:46:47.791Z,102672.38
2022-12-31T12:52:18.759Z,102670.56
2022-12-31T12:57:43.211Z,102661.75
2022-12-31T13:03:22.296Z,102661.84
2022-12-31T13:08:49.011Z,102669.72
2022-12-31T13:14:06.268Z,102673.16
2022-12-31T13:19:31.314Z,102676.69
2022-12-31T13:24:42.013Z,102675.81
2022-12-31T13:29:46.360Z,102678.47
2022-12-31T13:34:52.059Z,102684.69
2022-12-31T13:40:17.947Z,102680.19
2022-12-31T13:45:30.171Z,102689.03
2022-12-31T13:50:39.840Z,102693.31
2022-12-31T13:55:58.137Z,102687.28
2022-12-31T14:01:44.054Z,102698.78
2022-12-31T14:06:58.804Z,102702.34
2022-12-31T14:12:27.450Z,102703.16
2022-12-31T14:17:41.713Z,102706.66
2022-12-31T14:23:03.034Z,102697.25
2022-12-31T14:28:10.551Z,102727.78
2022-12-31T14:33:39.943Z,102720.78
2022-12-31T14:39:04.594Z,102730.44
2022-12-31T14:44:45.176Z,102728.81
2022-12-31T14:50:04.975Z,102730.44
2022-12-31T14:55:10.053Z,102728.66
2022-12-31T15:00:32.461Z,102728.59
2022-12-31T15:05:38.737Z,102729.47
2022-12-31T15:11:09.600Z,102729.59
2022-12-31T15:16:43.683Z,102732.22
2022-12-31T15:21:55.854Z,102730.53
2022-12-31T15:27:01.836Z,102742.72
2022-12-31T15:32:08.194Z,102732.09
2022-12-31T15:37:34.049Z,102729.53
2022-12-31T15:42:50.235Z,102726.94
2022-12-31T15:47:58.780Z,102733.03
2022-12-31T15:53:03.954Z,102733.91
2022-12-31T15:58:11.695Z,102738.28
2022-12-31T16:03:25.516Z,102730.44
2022-12-31T16:08:31.843Z,102747.16
2022-12-31T16:13:37.066Z,102751.53
2022-12-31T16:18:41.829Z,102744.44
2022-12-31T16:23:51.512Z,102746.19
2022-12-31T16:29:00.227Z,102756.84
2022-12-31T16:34:11.696Z,102762.16
2022-12-31T16:39:26.591Z,102756.00
2022-12-31T16:44:30.453Z,102753.34
2022-12-31T16:49:33.643Z,102746.31
2022-12-31T16:54:40.852Z,102750.47
2022-12-31T16:59:47.737Z,102747.91
2022-12-31T17:04:56.130Z,102743.59
2022-12-31T17:10:16.051Z,102748.88
2022-12-31T17:15:27.826Z,102738.28
2022-12-31T17:20:33.067Z,102731.13
2022-12-31T17:25:38.199Z,102731.88
2022-12-31T17:30:40.885Z,102746.09
2022-12-31T17:35:44.763Z,102734.69
2022-12-31T17:40:52.796Z,102743.66
2022-12-31T17:45:55.397Z,102762.09
2022-12-31T17:51:00.188Z,102765.47
2022-12-31T17:56:06.650Z,102771.69
2022-12-31T18:01:10.333Z,102770.81
2022-12-31T18:06:16.483Z,102761.06
2022-12-31T18:11:22.465Z,102761.16
2022-12-31T18:16:24.769Z,102769.13
2022-12-31T18:21:32.836Z,102774.34
2022-12-31T18:26:34.920Z,102748.72
2022-12-31T18:31:37.394Z,102753.28
2022-12-31T18:36:40.348Z,102760.31
2022-12-31T18:41:51.405Z,102760.22
2022-12-31T18:46:53.695Z,102779.59
2022-12-31T18:51:57.338Z,102789.34
2022-12-31T18:56:59.817Z,102794.72
2022-12-31T19:02:02.044Z,102796.50
2022-12-31T19:07:04.387Z,102802.66
2022-12-31T19:12:06.745Z,102813.22
2022-12-31T19:22:15.323Z,102814.25
2022-12-31T19:27:17.570Z,102821.34
2022-12-31T19:32:19.699Z,102830.06
2022-12-31T19:37:21.881Z,102831.78
2022-12-31T19:42:24.058Z,102821.19
2022-12-31T19:47:26.233Z,102825.69
2022-12-31T19:52:28.357Z,102818.59
2022-12-31T19:57:30.589Z,102823.91
2022-12-31T20:02:32.840Z,102824.69
2022-12-31T20:07:35.196Z,102829.06
2022-12-31T20:12:43.975Z,102841.47
2022-12-31T20:17:46.634Z,102840.78
2022-12-31T20:22:48.740Z,102843.44
2022-12-31T20:27:56.178Z,102844.25
2022-12-31T20:32:58.345Z,102851.44
2022-12-31T20:38:00.519Z,102847.88
2022-12-31T20:43:02.639Z,102829.28
2022-12-31T20:48:04.873Z,102831.09
2022-12-31T20:53:07.458Z,102824.00
2022-12-31T20:58:09.587Z,102825.78
2022-12-31T21:03:36.751Z,102822.25
2022-12-31T21:08:35.162Z,102815.06
2022-12-31T21:13:37.545Z,102823.84
2022-12-31T21:18:39.672Z,102832.72
2022-12-31T21:23:41.881Z,102834.66
2022-12-31T21:28:44.266Z,102832.81
2022-12-31T21:33:47.660Z,102827.63
2022-12-31T21:38:49.819Z,102852.31
2022-12-31T21:43:52.005Z,102854.09
2022-12-31T21:48:56.014Z,102853.09
2022-12-31T21:53:58.574Z,102862.78
2022-12-31T21:59:19.202Z,102868.06
2022-12-31T22:04:59.815Z,102862.06
2022-12-31T22:09:43.619Z,102871.88
2022-12-31T22:15:15.428Z,102873.44
2022-12-31T22:20:26.247Z,102884.00
2022-12-31T22:25:29.554Z,102886.66
2022-12-31T22:30:32.478Z,102887.56
2022-12-31T22:35:34.759Z,102890.31
2022-12-31T22:40:36.971Z,102873.53
2022-12-31T22:45:39.065Z,102872.69
2022-12-31T22:50:41.169Z,102856.69
2022-12-31T22:55:43.363Z,102844.25
2022-12-31T23:00:45.918Z,102852.22
2022-12-31T23:05:52.785Z,102852.22
2022-12-31T23:11:01.334Z,102842.63
2022-12-31T23:16:22.494Z,102841.81
2022-12-31T23:21:42.990Z,102840.91
2022-12-31T23:26:45.242Z,102850.63
2022-12-31T23:31:47.467Z,102855.88
2022-12-31T23:36:49.857Z,102853.19
2022-12-31T23:41:52.243Z,102843.44
2022-12-31T23:46:54.991Z,102846.13
2022-12-31T23:51:57.223Z,102844.41
2022-12-31T23:56:59.414Z,102845.28
